createdAt,value
2022-07-29T00:01:03.303Z,98709.91
2022-07-29T00:03:30.751Z,98714.66
2022-07-29T00:05:57.940Z,98714.66
2022-07-29T00:08:25.128Z,98716.88
2022-07-29T00:10:52.725Z,98714.22
2022-07-29T00:13:31.753Z,98724.53
2022-07-29T00:16:04.858Z,98722.47
2022-07-29T00:18:33.021Z,98719.78
2022-07-29T00:21:00.649Z,98725.97
2022-07-29T00:23:27.813Z,98720.00
2022-07-29T00:25:54.913Z,98717.97
2022-07-29T00:28:22.259Z,98724.53
2022-07-29T00:30:49.334Z,98724.12
2022-07-29T00:33:16.431Z,98718.81
2022-07-29T00:35:47.136Z,98723.72
2022-07-29T00:38:16.750Z,98723.28
2022-07-29T00:40:44.566Z,98725.38
2022-07-29T00:43:13.057Z,98723.41
2022-07-29T00:45:40.582Z,98718.44
2022-07-29T00:48:09.636Z,98721.69
2022-07-29T00:50:37.926Z,98721.31
2022-07-29T00:53:07.739Z,98715.59
2022-07-29T00:55:35.898Z,98722.13
2022-07-29T00:58:03.070Z,98727.87
2022-07-29T01:00:30.529Z,98730.78
2022-07-29T01:02:58.564Z,98714.75
2022-07-29T01:05:50.478Z,98714.75
2022-07-29T01:08:16.646Z,98716.84
2022-07-29T01:10:45.372Z,98711.94
2022-07-29T01:13:13.122Z,98709.25
2022-07-29T01:15:49.521Z,98709.25
2022-07-29T01:18:27.172Z,98708.44
2022-07-29T01:21:19.619Z,98709.69
2022-07-29T01:24:05.354Z,98713.81
2022-07-29T01:26:57.642Z,98710.12
2022-07-29T01:29:36.122Z,98707.88
2022-07-29T01:32:27.918Z,98709.75
2022-07-29T01:35:10.850Z,98709.38
2022-07-29T01:37:50.211Z,98708.53
2022-07-29T01:40:25.520Z,98709.16
2022-07-29T01:42:56.642Z,98709.16
2022-07-29T01:45:43.162Z,98713.25
2022-07-29T01:48:13.439Z,98707.50
2022-07-29T01:50:48.769Z,98710.34
2022-07-29T01:53:23.231Z,98704.63
2022-07-29T01:55:51.165Z,98698.28
2022-07-29T01:58:19.930Z,98698.13
2022-07-29T02:00:47.950Z,98700.78
2022-07-29T02:03:18.621Z,98694.41
2022-07-29T02:05:46.865Z,98700.16
2022-07-29T02:08:14.676Z,98702.81
2022-07-29T02:10:43.384Z,98707.97
2022-07-29T02:13:12.514Z,98703.88
2022-07-29T02:15:40.521Z,98697.31
2022-07-29T02:18:14.172Z,98695.28
2022-07-29T02:20:45.766Z,98698.75
2022-07-29T02:23:14.150Z,98698.97
2022-07-29T02:25:43.161Z,98693.25
2022-07-29T02:28:10.233Z,98695.13
2022-07-29T02:30:41.194Z,98695.72
2022-07-29T02:33:10.447Z,98698.19
2022-07-29T02:35:38.362Z,98688.13
2022-07-29T02:38:23.974Z,98689.16
2022-07-29T02:40:51.954Z,98685.03
2022-07-29T02:43:20.386Z,98692.25
2022-07-29T02:45:51.927Z,98687.12
2022-07-29T02:48:24.345Z,98694.31
2022-07-29T02:50:54.415Z,98686.94
2022-07-29T02:53:25.219Z,98684.66
2022-07-29T02:56:14.487Z,98685.88
2022-07-29T02:58:46.383Z,98687.97
2022-07-29T03:01:21.680Z,98692.06
2022-07-29T03:03:51.072Z,98685.09
2022-07-29T03:06:28.480Z,98688.78
2022-07-29T03:09:12.589Z,98685.88
2022-07-29T03:11:50.375Z,98689.78
2022-07-29T03:14:20.539Z,98688.56
2022-07-29T03:16:48.414Z,98694.91
2022-07-29T03:19:15.707Z,98691.66
2022-07-29T03:21:43.166Z,98685.91
2022-07-29T03:24:10.933Z,98687.12
2022-07-29T03:26:38.370Z,98688.78
2022-07-29T03:29:05.915Z,98699.03
2022-07-29T03:31:34.210Z,98690.84
2022-07-29T03:34:01.435Z,98692.88
2022-07-29T03:36:28.778Z,98694.69
2022-07-29T03:38:56.003Z,98702.69
2022-07-29T03:41:23.880Z,98701.47
2022-07-29T03:43:52.789Z,98696.56
2022-07-29T03:46:22.185Z,98695.31
2022-07-29T03:48:52.394Z,98698.63
2022-07-29T03:51:19.928Z,98694.91
2022-07-29T03:54:09.291Z,98696.97
2022-07-29T03:56:40.720Z,98700.66
2022-07-29T03:59:08.267Z,98689.37
2022-07-29T04:01:36.315Z,98696.34
2022-07-29T04:04:05.593Z,98702.94
2022-07-29T04:06:40.388Z,98701.69
2022-07-29T04:09:09.941Z,98705.59
2022-07-29T04:12:02.433Z,98699.44
2022-07-29T04:14:26.087Z,98706.59
2022-07-29T04:16:54.040Z,98699.41
2022-07-29T04:19:21.213Z,98706.59
2022-07-29T04:21:48.583Z,98705.56
2022-07-29T04:24:16.108Z,98709.25
2022-07-29T04:26:44.411Z,98705.75
2022-07-29T04:29:12.964Z,98706.53
2022-07-29T04:31:40.113Z,98702.59
2022-07-29T04:34:07.346Z,98708.72
2022-07-29T04:36:34.763Z,98709.50
2022-07-29T04:39:02.256Z,98706.59
2022-07-29T04:41:32.770Z,98703.88
2022-07-29T04:44:04.674Z,98712.66
2022-07-29T04:46:31.951Z,98715.94
2022-07-29T04:48:59.117Z,98717.03
2022-07-29T04:51:26.621Z,98706.37
2022-07-29T04:53:53.695Z,98713.84
2022-07-29T04:56:20.841Z,98706.84
2022-07-29T04:58:48.521Z,98702.75
2022-07-29T05:01:16.075Z,98704.53
2022-07-29T05:03:43.319Z,98704.81
2022-07-29T05:06:10.702Z,98711.31
2022-07-29T05:08:38.038Z,98711.16
2022-07-29T05:11:11.824Z,98711.38
2022-07-29T05:13:46.321Z,98714.22
2022-07-29T05:16:14.968Z,98712.19
2022-07-29T05:18:43.218Z,98710.47
2022-07-29T05:21:10.521Z,98708.62
2022-07-29T05:23:37.632Z,98701.72
2022-07-29T05:26:05.043Z,98712.44
2022-07-29T05:28:36.137Z,98710.75
2022-07-29T05:31:03.484Z,98719.69
2022-07-29T05:33:36.159Z,98718.66
2022-07-29T05:36:08.319Z,98715.94
2022-07-29T05:38:37.013Z,98714.13
2022-07-29T05:41:05.240Z,98717.78
2022-07-29T05:43:32.812Z,98718.97
2022-07-29T05:46:00.572Z,98719.31
2022-07-29T05:48:27.907Z,98721.41
2022-07-29T05:50:55.856Z,98724.59
2022-07-29T05:53:23.437Z,98734.00
2022-07-29T05:55:51.028Z,98721.94
2022-07-29T05:58:18.361Z,98718.59
2022-07-29T06:00:46.197Z,98728.78
2022-07-29T06:03:13.802Z,98722.13
2022-07-29T06:05:40.958Z,98722.38
2022-07-29T06:08:08.575Z,98729.22
2022-07-29T06:10:36.661Z,98725.50
2022-07-29T06:13:04.010Z,98727.41
2022-07-29T06:15:31.078Z,98724.84
2022-07-29T06:18:00.324Z,98728.69
2022-07-29T06:20:31.207Z,98735.44
2022-07-29T06:23:01.289Z,98724.03
2022-07-29T06:25:31.493Z,98727.97
2022-07-29T06:27:59.226Z,98729.75
2022-07-29T06:30:26.497Z,98730.47
2022-07-29T06:32:53.911Z,98732.53
2022-07-29T06:35:41.217Z,98733.72
2022-07-29T06:38:29.817Z,98734.03
2022-07-29T06:41:01.800Z,98743.72
2022-07-29T06:43:50.533Z,98750.13
2022-07-29T06:46:19.705Z,98742.56
2022-07-29T06:48:48.413Z,98742.56
2022-07-29T06:51:21.674Z,98746.19
2022-07-29T06:54:01.728Z,98736.16
2022-07-29T06:56:38.263Z,98743.97
2022-07-29T06:59:08.315Z,98744.66
2022-07-29T07:01:37.327Z,98751.41
2022-07-29T07:04:04.563Z,98749.72
2022-07-29T07:06:31.958Z,98730.13
2022-07-29T07:08:59.074Z,98742.41
2022-07-29T07:11:26.157Z,98747.28
2022-07-29T07:13:54.433Z,98750.91
2022-07-29T07:16:23.575Z,98746.31
2022-07-29T07:18:50.777Z,98746.38
2022-07-29T07:21:19.311Z,98749.75
2022-07-29T07:23:47.354Z,98738.88
2022-07-29T07:26:14.914Z,98741.09
2022-07-29T07:28:42.341Z,98740.91
2022-07-29T07:31:10.493Z,98749.91
2022-07-29T07:33:37.644Z,98749.13
2022-07-29T07:36:05.165Z,98747.41
2022-07-29T07:38:32.343Z,98746.16
2022-07-29T07:40:59.817Z,98741.44
2022-07-29T07:43:27.175Z,98733.41
2022-07-29T07:45:54.268Z,98740.06
2022-07-29T07:48:21.490Z,98735.09
2022-07-29T07:50:50.334Z,98728.09
2022-07-29T07:53:17.606Z,98733.31
2022-07-29T07:56:09.330Z,98741.59
2022-07-29T07:58:32.200Z,98743.22
2022-07-29T08:00:59.325Z,98745.53
2022-07-29T08:03:26.747Z,98743.81
2022-07-29T08:05:55.265Z,98739.12
2022-07-29T08:08:22.480Z,98738.25
2022-07-29T08:11:02.135Z,98732.81
2022-07-29T08:13:33.091Z,98733.50
2022-07-29T08:16:12.510Z,98739.56
2022-07-29T08:18:41.087Z,98738.31
2022-07-29T08:21:08.468Z,98742.47
2022-07-29T08:23:50.590Z,98747.75
2022-07-29T08:26:19.516Z,98741.19
2022-07-29T08:28:49.629Z,98742.59
2022-07-29T08:31:17.523Z,98742.63
2022-07-29T08:33:44.945Z,98745.63
2022-07-29T08:36:14.070Z,98740.81
2022-07-29T08:38:41.276Z,98738.56
2022-07-29T08:41:08.716Z,98746.72
2022-07-29T08:43:38.419Z,98744.50
2022-07-29T08:46:05.618Z,98738.31
2022-07-29T08:48:33.606Z,98743.25
2022-07-29T08:51:01.504Z,98739.12
2022-07-29T08:53:30.027Z,98735.41
2022-07-29T08:55:58.317Z,98741.66
2022-07-29T08:58:26.771Z,98733.84
2022-07-29T09:00:55.885Z,98726.19
2022-07-29T09:03:31.065Z,98730.50
2022-07-29T09:06:00.110Z,98735.37
2022-07-29T09:08:28.178Z,98742.34
2022-07-29T09:10:56.815Z,98740.97
2022-07-29T09:13:24.107Z,98737.53
2022-07-29T09:15:51.565Z,98735.94
2022-07-29T09:18:45.675Z,98733.50
2022-07-29T09:21:34.422Z,98731.06
2022-07-29T09:24:02.445Z,98726.19
2022-07-29T09:26:34.105Z,98722.47
2022-07-29T09:29:01.397Z,98720.59
2022-07-29T09:31:36.358Z,98722.50
2022-07-29T09:34:05.412Z,98723.00
2022-07-29T09:36:40.157Z,98713.00
2022-07-29T09:39:07.727Z,98723.56
2022-07-29T09:41:56.788Z,98715.44
2022-07-29T09:44:25.205Z,98714.06
2022-07-29T09:46:56.121Z,98714.91
2022-07-29T09:49:24.909Z,98707.34
2022-07-29T09:52:21.353Z,98714.88
2022-07-29T09:54:48.811Z,98704.78
2022-07-29T09:57:31.057Z,98695.03
2022-07-29T10:00:01.470Z,98701.72
2022-07-29T10:02:41.484Z,98702.34
2022-07-29T10:05:36.879Z,98697.31
2022-07-29T10:08:04.362Z,98702.25
2022-07-29T10:10:34.861Z,98697.16
2022-07-29T10:13:08.776Z,98697.66
2022-07-29T10:15:41.982Z,98692.91
2022-07-29T10:18:10.203Z,98700.84
2022-07-29T10:20:38.146Z,98697.87
2022-07-29T10:23:06.042Z,98690.31
2022-07-29T10:25:33.667Z,98689.25
2022-07-29T10:28:00.838Z,98694.66
2022-07-29T10:30:28.448Z,98695.53
2022-07-29T10:33:07.901Z,98688.94
2022-07-29T10:35:55.922Z,98685.72
2022-07-29T10:38:52.270Z,98681.75
2022-07-29T10:41:31.858Z,98678.62
2022-07-29T10:44:02.972Z,98675.28
2022-07-29T10:46:36.420Z,98668.53
2022-07-29T10:49:19.365Z,98667.41
2022-07-29T10:52:02.509Z,98676.75
2022-07-29T10:54:36.402Z,98674.87
2022-07-29T10:57:25.711Z,98672.69
2022-07-29T11:00:14.365Z,98677.81
2022-07-29T11:02:46.415Z,98673.38
2022-07-29T11:05:19.690Z,98666.06
2022-07-29T11:08:20.428Z,98662.38
2022-07-29T11:10:49.571Z,98659.72
2022-07-29T11:13:47.216Z,98646.63
2022-07-29T11:16:16.698Z,98647.75
2022-07-29T11:19:13.275Z,98650.28
2022-07-29T11:21:54.747Z,98648.31
2022-07-29T11:24:28.863Z,98628.91
2022-07-29T11:27:14.580Z,98637.78
2022-07-29T11:29:53.481Z,98627.28
2022-07-29T11:32:23.553Z,98630.38
2022-07-29T11:35:17.194Z,98624.41
2022-07-29T11:38:27.975Z,98628.91
2022-07-29T11:41:25.164Z,98622.09
2022-07-29T11:43:56.824Z,98620.38
2022-07-29T11:46:50.006Z,98616.25
2022-07-29T11:49:31.788Z,98616.69
2022-07-29T11:52:02.760Z,98615.09
2022-07-29T11:54:57.206Z,98613.59
2022-07-29T11:57:29.509Z,98613.41
2022-07-29T12:00:10.000Z,98615.28
2022-07-29T12:02:44.610Z,98610.72
2022-07-29T12:05:24.009Z,98614.00
2022-07-29T12:08:29.902Z,98611.75
2022-07-29T12:10:56.878Z,98612.00
2022-07-29T12:13:37.684Z,98610.06
2022-07-29T12:16:05.618Z,98611.66
2022-07-29T12:18:33.302Z,98604.00
2022-07-29T12:21:04.942Z,98599.91
2022-07-29T12:23:35.832Z,98590.75
2022-07-29T12:26:11.080Z,98593.63
2022-07-29T12:28:49.984Z,98591.13
2022-07-29T12:31:42.213Z,98592.28
2022-07-29T12:34:05.157Z,98591.00
2022-07-29T12:36:32.292Z,98585.56
2022-07-29T12:38:59.390Z,98591.97
2022-07-29T12:41:29.358Z,98574.16
2022-07-29T12:43:57.070Z,98580.41
2022-07-29T12:46:24.176Z,98570.44
2022-07-29T12:48:56.024Z,98563.78
2022-07-29T12:51:37.482Z,98568.63
2022-07-29T12:54:08.057Z,98567.41
2022-07-29T12:56:43.985Z,98554.59
2022-07-29T12:59:22.748Z,98551.16
2022-07-29T13:01:51.910Z,98553.84
2022-07-29T13:04:27.839Z,98557.12
2022-07-29T13:07:08.339Z,98548.81
2022-07-29T13:09:43.051Z,98547.72
2022-07-29T13:12:11.813Z,98547.91
2022-07-29T13:14:50.140Z,98548.81
2022-07-29T13:17:23.856Z,98542.00
2022-07-29T13:20:08.645Z,98546.16
2022-07-29T13:22:36.840Z,98544.91
2022-07-29T13:25:04.578Z,98537.00
2022-07-29T13:27:33.247Z,98532.50
2022-07-29T13:30:01.790Z,98522.22
2022-07-29T13:32:30.455Z,98519.53
2022-07-29T13:34:58.680Z,98512.66
2022-07-29T13:37:26.945Z,98520.59
2022-07-29T13:39:55.281Z,98521.81
2022-07-29T13:42:25.806Z,98517.06
2022-07-29T13:44:55.976Z,98516.81
2022-07-29T13:47:32.800Z,98511.06
2022-07-29T13:50:06.269Z,98503.75
2022-07-29T13:52:34.943Z,98501.81
2022-07-29T13:55:03.304Z,98495.16
2022-07-29T13:57:30.904Z,98507.37
2022-07-29T13:59:58.262Z,98494.22
2022-07-29T14:02:26.305Z,98493.06
2022-07-29T14:04:55.141Z,98489.56
2022-07-29T14:07:23.256Z,98491.87
2022-07-29T14:09:52.150Z,98494.38
2022-07-29T14:12:20.147Z,98489.09
2022-07-29T14:14:47.754Z,98482.03
2022-07-29T14:17:15.736Z,98480.56
2022-07-29T14:19:43.271Z,98483.63
2022-07-29T14:22:10.958Z,98482.66
2022-07-29T14:24:38.932Z,98477.53
2022-07-29T14:27:07.802Z,98479.94
2022-07-29T14:29:38.100Z,98474.38
2022-07-29T14:32:09.949Z,98476.63
2022-07-29T14:34:38.068Z,98473.91
2022-07-29T14:37:09.463Z,98470.47
2022-07-29T14:39:43.567Z,98471.63
2022-07-29T14:42:12.496Z,98458.91
2022-07-29T14:44:40.925Z,98456.50
2022-07-29T14:47:08.825Z,98459.19
2022-07-29T14:49:36.310Z,98453.25
2022-07-29T14:52:03.879Z,98457.00
2022-07-29T14:54:31.287Z,98456.53
2022-07-29T14:56:58.837Z,98446.25
2022-07-29T14:59:27.157Z,98447.75
2022-07-29T15:01:54.695Z,98448.84
2022-07-29T15:04:22.080Z,98435.84
2022-07-29T15:06:49.345Z,98441.22
2022-07-29T15:09:16.791Z,98444.09
2022-07-29T15:11:43.873Z,98441.44
2022-07-29T15:14:10.966Z,98427.06
2022-07-29T15:16:39.438Z,98424.44
2022-07-29T15:19:11.047Z,98421.63
2022-07-29T15:21:41.343Z,98427.16
2022-07-29T15:24:15.767Z,98428.03
2022-07-29T15:26:43.590Z,98432.81
2022-07-29T15:29:10.708Z,98435.03
2022-07-29T15:31:37.899Z,98422.53
2022-07-29T15:34:06.555Z,98421.41
2022-07-29T15:39:22.096Z,98424.19
2022-07-29T15:41:49.381Z,98421.84
2022-07-29T15:44:16.467Z,98420.75
2022-07-29T15:47:02.723Z,98413.44
2022-07-29T15:49:48.368Z,98412.19
2022-07-29T15:52:24.821Z,98409.69
2022-07-29T15:54:57.006Z,98410.34
2022-07-29T15:57:25.183Z,98416.72
2022-07-29T15:59:52.366Z,98411.41
2022-07-29T16:02:19.673Z,98411.47
2022-07-29T16:04:47.383Z,98406.94
2022-07-29T16:07:15.225Z,98410.69
2022-07-29T16:09:43.236Z,98406.44
2022-07-29T16:12:14.835Z,98400.84
2022-07-29T16:14:43.481Z,98404.41
2022-07-29T16:17:14.813Z,98404.41
2022-07-29T16:19:45.655Z,98402.06
2022-07-29T16:22:13.593Z,98403.22
2022-07-29T16:24:40.747Z,98403.97
2022-07-29T16:27:08.125Z,98405.88
2022-07-29T16:29:37.185Z,98401.19
2022-07-29T16:32:05.943Z,98398.44
2022-07-29T16:34:33.257Z,98398.94
2022-07-29T16:37:00.946Z,98399.22
2022-07-29T16:39:28.138Z,98392.84
2022-07-29T16:41:59.673Z,98388.66
2022-07-29T16:44:27.570Z,98394.22
2022-07-29T16:46:56.089Z,98395.50
2022-07-29T16:49:26.566Z,98390.19
2022-07-29T16:51:54.114Z,98391.63
2022-07-29T16:54:21.232Z,98391.50
2022-07-29T16:56:48.308Z,98382.03
2022-07-29T16:59:15.683Z,98384.38
2022-07-29T17:01:42.857Z,98386.34
2022-07-29T17:04:11.041Z,98385.56
2022-07-29T17:06:40.208Z,98390.00
2022-07-29T17:09:08.913Z,98394.09
2022-07-29T17:11:52.967Z,98385.50
2022-07-29T17:14:27.120Z,98390.28
2022-07-29T17:17:03.074Z,98393.00
2022-07-29T17:19:32.526Z,98388.34
2022-07-29T17:22:08.903Z,98392.09
2022-07-29T17:24:38.148Z,98397.00
2022-07-29T17:27:06.091Z,98390.25
2022-07-29T17:29:34.886Z,98388.06
2022-07-29T17:32:02.623Z,98392.03
2022-07-29T17:34:29.708Z,98382.88
2022-07-29T17:36:57.346Z,98386.84
2022-07-29T17:39:24.931Z,98384.94
2022-07-29T17:41:52.026Z,98382.53
2022-07-29T17:44:19.063Z,98386.63
2022-07-29T17:46:46.490Z,98386.06
2022-07-29T17:49:13.776Z,98385.81
2022-07-29T17:51:40.871Z,98392.66
2022-07-29T17:54:08.209Z,98392.06
2022-07-29T17:56:35.350Z,98396.53
2022-07-29T17:59:06.564Z,98397.72
2022-07-29T18:01:34.529Z,98403.19
2022-07-29T18:04:02.838Z,98398.13
2022-07-29T18:06:29.934Z,98404.12
2022-07-29T18:08:57.081Z,98407.94
2022-07-29T18:11:24.605Z,98407.41
2022-07-29T18:13:51.892Z,98409.31
2022-07-29T18:16:19.812Z,98414.44
2022-07-29T18:18:47.363Z,98407.09
2022-07-29T18:21:14.483Z,98405.44
2022-07-29T18:23:42.371Z,98414.81
2022-07-29T18:26:09.973Z,98406.91
2022-07-29T18:28:37.178Z,98413.56
2022-07-29T18:31:04.393Z,98412.91
2022-07-29T18:33:32.679Z,98408.56
2022-07-29T18:36:07.610Z,98415.47
2022-07-29T18:38:40.594Z,98408.91
2022-07-29T18:41:07.742Z,98412.50
2022-07-29T18:43:34.827Z,98416.50
2022-07-29T18:46:02.519Z,98422.09
2022-07-29T18:48:29.775Z,98425.25
2022-07-29T18:50:56.844Z,98425.94
2022-07-29T18:53:24.256Z,98417.44
2022-07-29T18:55:51.326Z,98427.25
2022-07-29T18:58:18.380Z,98421.50
2022-07-29T19:00:45.746Z,98421.47
2022-07-29T19:03:12.900Z,98422.75
2022-07-29T19:05:40.056Z,98421.97
2022-07-29T19:08:07.548Z,98427.88
2022-07-29T19:10:34.868Z,98422.47
2022-07-29T19:13:01.935Z,98427.75
2022-07-29T19:15:29.338Z,98430.16
2022-07-29T19:18:00.858Z,98425.56
2022-07-29T19:20:28.779Z,98436.25
2022-07-29T19:22:56.188Z,98436.66
2022-07-29T19:25:23.359Z,98436.03
2022-07-29T19:27:50.448Z,98439.31
2022-07-29T19:30:18.571Z,98440.28
2022-07-29T19:32:45.742Z,98439.63
2022-07-29T19:35:25.310Z,98438.50
2022-07-29T19:37:52.923Z,98439.06
2022-07-29T19:40:20.259Z,98437.19
2022-07-29T19:42:51.790Z,98430.75
2022-07-29T19:45:20.319Z,98422.19
2022-07-29T19:47:48.604Z,98423.53
2022-07-29T19:50:16.444Z,98438.00
2022-07-29T19:52:45.207Z,98419.47
2022-07-29T19:55:12.279Z,98423.13
2022-07-29T19:57:41.234Z,98430.50
2022-07-29T20:00:11.046Z,98424.50
2022-07-29T20:02:40.303Z,98433.88
2022-07-29T20:05:11.332Z,98419.53
2022-07-29T20:07:39.707Z,98415.66
2022-07-29T20:10:08.208Z,98415.56
2022-07-29T20:12:37.397Z,98413.94
2022-07-29T20:15:07.135Z,98419.81
2022-07-29T20:17:39.892Z,98417.44
2022-07-29T20:20:08.642Z,98415.50
2022-07-29T20:22:36.716Z,98414.59
2022-07-29T20:25:05.222Z,98415.56
2022-07-29T20:27:32.682Z,98411.72
2022-07-29T20:29:59.813Z,98419.12
2022-07-29T20:32:26.918Z,98425.22
2022-07-29T20:34:54.268Z,98427.81
2022-07-29T20:37:21.391Z,98419.03
2022-07-29T20:39:48.541Z,98430.25
2022-07-29T20:42:16.215Z,98433.16
2022-07-29T20:44:43.286Z,98434.81
2022-07-29T20:47:10.588Z,98429.91
2022-07-29T20:49:38.035Z,98437.34
2022-07-29T20:52:05.353Z,98437.28
2022-07-29T20:54:32.412Z,98438.78
2022-07-29T20:57:00.059Z,98436.50
2022-07-29T20:59:27.426Z,98442.44
2022-07-29T21:01:55.635Z,98450.16
2022-07-29T21:04:23.083Z,98446.56
2022-07-29T21:06:58.318Z,98448.66
2022-07-29T21:09:25.987Z,98446.22
2022-07-29T21:11:53.201Z,98453.78
2022-07-29T21:14:35.649Z,98446.06
2022-07-29T21:17:06.332Z,98461.69
2022-07-29T21:19:34.638Z,98464.97
2022-07-29T21:22:01.903Z,98466.00
2022-07-29T21:24:29.360Z,98457.97
2022-07-29T21:27:21.294Z,98464.13
2022-07-29T21:29:49.681Z,98468.34
2022-07-29T21:32:29.863Z,98462.56
2022-07-29T21:34:58.058Z,98461.37
2022-07-29T21:37:25.301Z,98475.25
2022-07-29T21:39:52.373Z,98481.56
2022-07-29T21:42:19.799Z,98476.13
2022-07-29T21:44:46.876Z,98473.69
2022-07-29T21:47:14.109Z,98471.72
2022-07-29T21:49:42.250Z,98473.00
2022-07-29T21:52:09.341Z,98480.00
2022-07-29T21:54:36.442Z,98478.25
2022-07-29T21:57:04.529Z,98481.72
2022-07-29T21:59:31.939Z,98481.03
2022-07-29T22:02:01.071Z,98479.53
2022-07-29T22:04:29.525Z,98477.41
2022-07-29T22:06:58.044Z,98477.97
2022-07-29T22:09:25.646Z,98483.78
2022-07-29T22:11:53.581Z,98483.41
2022-07-29T22:14:21.339Z,98488.62
2022-07-29T22:16:48.718Z,98488.72
2022-07-29T22:19:16.247Z,98492.22
2022-07-29T22:21:43.567Z,98490.47
2022-07-29T22:24:11.306Z,98489.53
2022-07-29T22:26:38.697Z,98482.91
2022-07-29T22:29:06.462Z,98486.00
2022-07-29T22:31:33.861Z,98487.72
2022-07-29T22:34:01.237Z,98482.25
2022-07-29T22:36:28.286Z,98493.50
2022-07-29T22:38:55.417Z,98484.03
2022-07-29T22:41:22.816Z,98484.25
2022-07-29T22:43:50.082Z,98485.78
2022-07-29T22:46:17.180Z,98483.31
2022-07-29T22:48:44.645Z,98477.97
2022-07-29T22:51:11.817Z,98479.38
2022-07-29T22:53:38.924Z,98472.44
2022-07-29T22:56:06.502Z,98476.75
2022-07-29T22:58:33.548Z,98484.94
2022-07-29T23:01:00.638Z,98487.16
2022-07-29T23:03:28.114Z,98485.53
2022-07-29T23:05:55.230Z,98480.19
2022-07-29T23:08:22.355Z,98473.88
2022-07-29T23:10:49.729Z,98468.41
2022-07-29T23:13:16.986Z,98463.84
2022-07-29T23:15:44.087Z,98469.94
2022-07-29T23:18:11.425Z,98463.78
2022-07-29T23:20:38.596Z,98458.38
2022-07-29T23:23:05.650Z,98461.16
2022-07-29T23:25:32.987Z,98463.81
2022-07-29T23:28:00.136Z,98452.31
2022-07-29T23:30:28.059Z,98448.47
2022-07-29T23:32:55.706Z,98445.41
2022-07-29T23:35:23.517Z,98446.69
2022-07-29T23:37:50.562Z,98445.78
2022-07-29T23:40:18.248Z,98446.03
2022-07-29T23:42:45.459Z,98442.91
2022-07-29T23:45:13.281Z,98437.34
2022-07-29T23:47:42.304Z,98435.56
2022-07-29T23:50:15.307Z,98430.44
2022-07-29T23:52:44.112Z,98433.56
2022-07-29T23:55:36.742Z,98432.38
2022-07-29T23:58:00.458Z,98427.62
